DW8626 Madrid ES current weather conditions

sailwx.info

Wind from 169 at 5 knots gusting 10

Air temperature 29.4° C
Dewpoint 11.5° C

Last reported at 2014-Jul-28 09:39 UTC.
Time now 2014-Jul-28 10:20 UTC

Location: N 40°29' W 003°43'.
View on Google Maps.

See reports from other nearby stations

  
Tides and Currents Weather Stations Pressure Air Temp Water Temp Dewpoint Dewpoint Depression Visibility Wind Speed Wind Dir Waves Ship Positions
date/time (UTC)wind fromknots sea level pressurealtimeterstation pressurevisibilityair tempwater tempwave heightnotes
2014-Jul-28 09:39 169 5 gusting 10 29.4
2014-Jul-28 09:24 274 2 gusting 6 29.4
2014-Jul-28 09:09 156 30.0
2014-Jul-28 08:54 155 29.4
2014-Jul-28 08:39 158 29.4
2014-Jul-28 08:24 160 28.3
2014-Jul-28 08:09 278 27.8
2014-Jul-28 07:54 141 28.3
2014-Jul-28 07:39 007 27.2
2014-Jul-28 07:24 165 27.2
2014-Jul-28 07:09 108 26.7
2014-Jul-28 06:54 103 25.6
2014-Jul-28 06:39 356 25.0
2014-Jul-28 06:24 044 24.4
2014-Jul-28 06:09 015 23.9
2014-Jul-28 05:54 032 1 gusting 4 23.9
2014-Jul-28 05:39 037 2 gusting 4 23.9
2014-Jul-28 05:24 020 23.9
2014-Jul-28 05:09 027 23.9
2014-Jul-28 04:54 311 23.9
2014-Jul-28 04:39 042 24.4
2014-Jul-28 04:24 046 2 gusting 6 24.4
2014-Jul-28 04:09 032 3 gusting 10 24.4
2014-Jul-28 03:54 026 3 gusting 10 24.4
2014-Jul-28 03:39 045 5 gusting 9 24.4
2014-Jul-28 03:24 033 4 gusting 6 23.9
2014-Jul-28 03:09 015 1 gusting 7 24.4
2014-Jul-28 02:54 032 1 gusting 8 24.4
2014-Jul-28 02:39 020 3 gusting 6 24.4
2014-Jul-28 02:24 032 4 gusting 7 24.4
2014-Jul-28 02:09 020 3 gusting 6 24.4
2014-Jul-28 01:54 025 3 gusting 7 25.0
2014-Jul-28 01:39 027 4 gusting 6 25.0
2014-Jul-28 01:24 025 4 gusting 8 25.6
2014-Jul-28 01:09 041 4 gusting 9 25.6
2014-Jul-28 00:54 033 2 gusting 10 26.1
2014-Jul-28 00:39 051 7 gusting 11 26.1
2014-Jul-28 00:24 028 4 gusting 11 26.1
2014-Jul-28 00:09 025 6 gusting 12 26.1
2014-Jul-27 23:54 008 6 gusting 11 26.7
2014-Jul-27 23:39 329 5 gusting 11 26.7
2014-Jul-27 23:24 043 7 gusting 13 27.2
2014-Jul-27 23:09 061 6 gusting 13 27.8
2014-Jul-27 22:54 032 5 gusting 11 28.3
2014-Jul-27 22:39 051 1 gusting 9 28.3
2014-Jul-27 22:24 214 28.9
2014-Jul-27 22:09 221 28.9
2014-Jul-27 21:54 210 28.9
2014-Jul-27 21:39 239 29.4
2014-Jul-27 21:24 236 30.0
2014-Jul-27 21:09 260 0 gusting 2 30.0
2014-Jul-27 20:54 266 3 gusting 5 30.6
2014-Jul-27 20:39 221 30.6
2014-Jul-27 20:24 244 0 gusting 3 30.6
2014-Jul-27 20:09 249 1 gusting 4 31.1
2014-Jul-27 19:54 253 31.7
2014-Jul-27 19:39 224 0 gusting 2 31.7
2014-Jul-27 19:24 203 0 gusting 5 32.2
2014-Jul-27 19:09 218 3 gusting 7 32.8
2014-Jul-27 18:54 235 3 gusting 6 33.3
2014-Jul-27 18:39 269 5 gusting 9 33.3
2014-Jul-27 18:24 212 3 gusting 8 33.9
2014-Jul-27 18:09 284 5 gusting 8 33.9
2014-Jul-27 17:54 210 6 gusting 10 33.9
2014-Jul-27 17:39 190 7 gusting 13 33.9
2014-Jul-27 17:24 266 4 gusting 12 33.9
2014-Jul-27 17:09 224 3 gusting 8 34.4
2014-Jul-27 16:54 221 7 gusting 10 34.4
2014-Jul-27 16:39 105 3 gusting 9 35.0
2014-Jul-27 16:24 278 0 gusting 10 35.0
2014-Jul-27 16:09 219 5 gusting 9 35.0
2014-Jul-27 15:54 328 0 gusting 11 34.4
2014-Jul-27 15:39 163 10 gusting 13 34.4
2014-Jul-27 15:24 285 33.9
2014-Jul-27 15:09 050 0 gusting 6 33.9
2014-Jul-27 14:54 257 5 gusting 13 33.9
2014-Jul-27 14:39 180 4 gusting 8 34.4
2014-Jul-27 14:24 135 2 gusting 8 33.3
2014-Jul-27 14:09 194 2 gusting 8 33.9
2014-Jul-27 13:54 066 33.3
2014-Jul-27 13:39 141 1 gusting 11 32.8
2014-Jul-27 13:24 119 2 gusting 5 33.3
2014-Jul-27 13:09 098 1 gusting 6 33.3
2014-Jul-27 12:54 096 0 gusting 5 32.8
2014-Jul-27 12:39 293 0 gusting 4 32.8
2014-Jul-27 12:24 121 0 gusting 5 32.2
2014-Jul-27 12:09 229 33.3
2014-Jul-27 11:54 165 3 gusting 5 32.8
2014-Jul-27 11:39 102 31.7
2014-Jul-27 11:24 089 32.8
2014-Jul-27 11:09 089 31.7
2014-Jul-27 10:54 082 0 gusting 4 30.6
2014-Jul-27 10:39 141 1 gusting 5 30.0
2014-Jul-27 10:24 102 0 gusting 5 30.0
2014-Jul-27 10:09 167 0 gusting 5 28.9
2014-Jul-27 09:54 034 29.4
2014-Jul-27 09:39 007 1 gusting 4 28.3
2014-Jul-27 09:24 156 1 gusting 3 27.2
2014-Jul-27 09:09 060 2 gusting 6 26.7
2014-Jul-27 08:54 027 1 gusting 6 26.7
2014-Jul-27 08:39 075 0 gusting 4 26.7
2014-Jul-27 08:24 090 25.6
2014-Jul-27 08:09 094 0 gusting 3 26.1
2014-Jul-27 07:54 076 0 gusting 2 25.6
2014-Jul-27 07:39 048 24.4
2014-Jul-27 07:24 166 23.9
2014-Jul-27 07:09 089 24.4
2014-Jul-27 06:54 036 23.3
2014-Jul-27 06:39 094 2 gusting 5 23.3
2014-Jul-27 06:24 027 1 gusting 5 23.3
2014-Jul-27 06:09 044 22.8
2014-Jul-27 05:54 045 2 gusting 6 22.8
2014-Jul-27 05:39 035 2 gusting 6 22.8
2014-Jul-27 05:24 021 0 gusting 6 22.8
2014-Jul-27 05:09 023 3 gusting 9 22.8
2014-Jul-27 04:54 094 4 gusting 7 22.8
2014-Jul-27 04:39 005 4 gusting 12 22.8
2014-Jul-27 04:24 044 5 gusting 11 23.3
2014-Jul-27 04:09 058 3 gusting 12 23.3
2014-Jul-27 03:54 051 8 gusting 14 23.3
2014-Jul-27 03:39 025 10 gusting 13 23.3
2014-Jul-27 03:24 025 8 gusting 15 23.3
2014-Jul-27 03:09 037 5 gusting 14 23.9
2014-Jul-27 02:54 050 7 gusting 14 23.9
2014-Jul-27 02:39 050 6 gusting 14 23.9
2014-Jul-27 02:24 044 6 gusting 13 24.4
2014-Jul-27 02:09 028 10 gusting 14 24.4
2014-Jul-27 01:39 037 7 gusting 16 24.4
2014-Jul-27 01:24 063 6 gusting 18 25.0
2014-Jul-27 01:09 009 7 gusting 18 25.0
2014-Jul-27 00:54 030 6 gusting 16 25.0
2014-Jul-27 00:39 045 9 gusting 16 25.6
2014-Jul-27 00:24 032 8 gusting 17 25.6
2014-Jul-27 00:09 042 6 gusting 13 25.6
2014-Jul-26 23:54 063 5 gusting 13 26.1
2014-Jul-26 23:39 020 9 gusting 12 26.1
2014-Jul-26 23:24 036 7 gusting 13 26.7
2014-Jul-26 23:09 007 8 gusting 13 27.2
2014-Jul-26 22:54 032 2 gusting 9 28.3
2014-Jul-26 22:39 205 27.8
2014-Jul-26 22:24 217 28.3
2014-Jul-26 22:09 275 28.3
2014-Jul-26 21:54 249 28.3
2014-Jul-26 21:39 225 28.3
2014-Jul-26 21:24 160 28.9
2014-Jul-26 21:09 222 29.4
2014-Jul-26 20:54 255 29.4
2014-Jul-26 20:39 219 0 gusting 0 30.0
2014-Jul-26 20:24 228 0 gusting 5 30.0
2014-Jul-26 20:09 240 1 gusting 3 30.6
2014-Jul-26 19:54 239 31.1
2014-Jul-26 19:39 222 0 gusting 2 31.1
2014-Jul-26 19:24 233 0 gusting 5 31.7
2014-Jul-26 19:09 156 0 gusting 6 32.2
2014-Jul-26 18:54 229 0 gusting 6 32.8
2014-Jul-26 18:39 199 2 gusting 6 33.3
2014-Jul-26 18:24 179 4 gusting 8 33.3
2014-Jul-26 18:09 221 2 gusting 7 33.3
2014-Jul-26 17:54 161 3 gusting 7 33.9
2014-Jul-26 17:39 207 2 gusting 8 33.9
2014-Jul-26 17:24 203 1 gusting 9 33.9
2014-Jul-26 17:09 249 0 gusting 6 33.9
2014-Jul-26 16:54 195 0 gusting 9 33.9
2014-Jul-26 16:39 212 5 gusting 8 33.9
2014-Jul-26 16:24 201 4 gusting 9 34.4
2014-Jul-26 16:09 214 6 gusting 10 33.9
2014-Jul-26 15:54 194 3 gusting 7 33.9
2014-Jul-26 15:39 242 3 gusting 13 33.9
2014-Jul-26 15:24 172 5 gusting 10 33.3
2014-Jul-26 15:09 175 3 gusting 11 33.9
2014-Jul-26 14:54 274 1 gusting 5 33.3
2014-Jul-26 14:39 141 33.9
2014-Jul-26 14:24 246 5 gusting 8 33.9
2014-Jul-26 14:09 014 0 gusting 6 33.3
2014-Jul-26 13:54 009 1 gusting 5 32.8
2014-Jul-26 13:39 188 0 gusting 8 32.8
2014-Jul-26 13:24 186 1 gusting 9 32.8
2014-Jul-26 13:09 257 3 gusting 7 32.2
2014-Jul-26 12:54 285 2 gusting 6 31.7
2014-Jul-26 12:39 231 4 gusting 6 31.7
2014-Jul-26 12:24 271 0 gusting 7 31.7
2014-Jul-26 12:09 104 1 gusting 6 31.1
2014-Jul-26 11:54 218 3 gusting 6 31.1
2014-Jul-26 11:39 172 30.6
2014-Jul-26 11:24 115 0 gusting 6 30.0
2014-Jul-26 11:09 269 29.4
2014-Jul-26 10:54 228 0 gusting 6 29.4
2014-Jul-26 10:39 175 30.0
2014-Jul-26 10:24 172 2 gusting 5 28.9
2014-Jul-26 10:09 139 2 gusting 4 28.9